createdAt,value
2022-10-22T00:01:36.667Z,20.23
2022-10-22T00:04:03.154Z,19.57
2022-10-22T00:06:29.636Z,21.43
2022-10-22T00:08:56.175Z,20.17
2022-10-22T00:11:22.677Z,19.70
2022-10-22T00:13:49.309Z,19.90
2022-10-22T00:16:15.924Z,19.50
2022-10-22T00:18:42.429Z,21.10
2022-10-22T00:21:09.393Z,20.40
2022-10-22T00:23:35.820Z,20.73
2022-10-22T00:26:02.327Z,20.73
2022-10-22T00:28:28.791Z,21.60
2022-10-22T00:30:56.941Z,20.57
2022-10-22T00:33:23.620Z,20.57
2022-10-22T00:35:50.092Z,19.97
2022-10-22T00:38:16.580Z,19.90
2022-10-22T00:40:43.007Z,20.93
2022-10-22T00:43:13.924Z,19.00
2022-10-22T00:45:40.844Z,20.00
2022-10-22T00:48:08.555Z,21.53
2022-10-22T00:50:40.674Z,20.33
2022-10-22T00:53:13.744Z,21.20
2022-10-22T00:55:41.910Z,20.30
2022-10-22T00:58:08.515Z,20.10
2022-10-22T01:00:35.355Z,20.13
2022-10-22T01:03:01.879Z,19.67
2022-10-22T01:05:29.966Z,19.97
2022-10-22T01:07:56.484Z,19.83
2022-10-22T01:10:55.369Z,20.67
2022-10-22T01:13:48.689Z,19.93
2022-10-22T01:16:22.671Z,21.03
2022-10-22T01:19:05.811Z,19.57
2022-10-22T01:21:41.997Z,19.73
2022-10-22T01:24:20.463Z,20.23
2022-10-22T01:26:59.835Z,19.83
2022-10-22T01:29:48.733Z,20.17
2022-10-22T01:32:22.580Z,19.63
2022-10-22T01:34:52.600Z,18.93
2022-10-22T01:37:21.288Z,19.63
2022-10-22T01:39:48.279Z,19.50
2022-10-22T01:42:15.198Z,19.43
2022-10-22T01:44:42.086Z,20.13
2022-10-22T01:47:41.180Z,20.97
2022-10-22T01:50:24.354Z,20.47
2022-10-22T01:53:00.121Z,21.73
2022-10-22T01:55:32.190Z,21.10
2022-10-22T01:58:33.867Z,20.87
2022-10-22T02:01:08.796Z,20.77
2022-10-22T02:03:46.468Z,21.37
2022-10-22T02:06:18.931Z,21.20
2022-10-22T02:08:46.267Z,21.43
2022-10-22T02:11:14.258Z,20.97
2022-10-22T02:13:44.220Z,22.23
2022-10-22T02:16:13.914Z,22.27
2022-10-22T02:18:43.092Z,21.83
2022-10-22T02:21:09.892Z,22.53
2022-10-22T02:23:36.670Z,22.60
2022-10-22T02:26:20.529Z,22.70
2022-10-22T02:28:59.801Z,20.73
2022-10-22T02:31:29.161Z,21.53
2022-10-22T02:33:57.413Z,21.63
2022-10-22T02:36:24.420Z,21.47
2022-10-22T02:38:51.784Z,22.97
2022-10-22T02:41:18.583Z,22.77
2022-10-22T02:43:50.040Z,22.83
2022-10-22T02:46:16.663Z,23.53
2022-10-22T02:48:43.110Z,22.60
2022-10-22T02:51:09.577Z,22.63
2022-10-22T02:53:36.319Z,22.27
2022-10-22T02:56:02.829Z,22.90
2022-10-22T02:58:29.341Z,24.17
2022-10-22T03:00:56.044Z,23.60
2022-10-22T03:03:22.530Z,22.37
2022-10-22T03:05:51.108Z,25.17
2022-10-22T03:08:17.976Z,23.40
2022-10-22T03:10:44.519Z,24.07
2022-10-22T03:13:11.024Z,23.83
2022-10-22T03:15:37.603Z,23.67
2022-10-22T03:18:04.151Z,23.60
2022-10-22T03:20:30.947Z,22.10
2022-10-22T03:22:58.041Z,24.40
2022-10-22T03:25:25.814Z,24.10
2022-10-22T03:27:54.153Z,22.63
2022-10-22T03:30:21.056Z,24.57
2022-10-22T03:32:47.828Z,22.97
2022-10-22T03:35:14.442Z,23.20
2022-10-22T03:37:41.505Z,22.57
2022-10-22T03:40:09.481Z,23.80
2022-10-22T03:42:36.121Z,23.13
2022-10-22T03:45:02.629Z,23.77
2022-10-22T03:47:29.182Z,24.73
2022-10-22T03:49:55.695Z,23.17
2022-10-22T03:52:22.265Z,23.93
2022-10-22T03:54:48.809Z,22.77
2022-10-22T03:57:15.603Z,23.33
2022-10-22T03:59:44.430Z,23.13
2022-10-22T04:02:11.471Z,22.90
2022-10-22T04:04:38.113Z,23.43
2022-10-22T04:07:06.352Z,24.00
2022-10-22T04:09:33.421Z,23.70
2022-10-22T04:12:00.812Z,23.87
2022-10-22T04:14:27.274Z,23.83
2022-10-22T04:16:54.900Z,24.03
2022-10-22T04:19:21.447Z,23.20
2022-10-22T04:21:47.878Z,23.80
2022-10-22T04:24:14.475Z,22.97
2022-10-22T04:26:41.099Z,24.10
2022-10-22T04:29:11.775Z,22.80
2022-10-22T04:31:41.794Z,24.13
2022-10-22T04:34:08.401Z,23.50
2022-10-22T04:36:34.842Z,24.20
2022-10-22T04:39:01.979Z,23.53
2022-10-22T04:41:31.133Z,24.53
2022-10-22T04:43:58.586Z,25.10
2022-10-22T04:46:28.543Z,24.67
2022-10-22T04:48:55.032Z,24.70
2022-10-22T04:51:23.075Z,24.00
2022-10-22T04:53:49.972Z,25.50
2022-10-22T04:56:21.829Z,23.83
2022-10-22T04:58:55.896Z,24.77
2022-10-22T05:01:25.151Z,24.27
2022-10-22T05:03:53.016Z,25.47
2022-10-22T05:06:20.922Z,24.80
2022-10-22T05:08:48.336Z,24.63
2022-10-22T05:11:19.879Z,24.43
2022-10-22T05:13:46.749Z,25.57
2022-10-22T05:16:13.640Z,24.57
2022-10-22T05:18:42.080Z,26.03
2022-10-22T05:21:10.636Z,24.73
2022-10-22T05:23:37.278Z,25.47
2022-10-22T05:26:05.174Z,25.37
2022-10-22T05:28:32.311Z,25.70
2022-10-22T05:30:59.725Z,25.77
2022-10-22T05:33:28.020Z,26.97
2022-10-22T05:35:54.684Z,24.90
2022-10-22T05:38:21.524Z,25.50
2022-10-22T05:40:48.482Z,24.33
2022-10-22T05:43:14.909Z,25.27
2022-10-22T05:45:42.411Z,24.17
2022-10-22T05:48:09.800Z,24.90
2022-10-22T05:50:37.614Z,24.57
2022-10-22T05:53:07.428Z,25.03
2022-10-22T05:55:37.246Z,25.80
2022-10-22T05:58:04.609Z,23.87
2022-10-22T06:00:31.903Z,23.80
2022-10-22T06:02:58.772Z,23.83
2022-10-22T06:05:25.243Z,25.23
2022-10-22T06:07:51.905Z,26.40
2022-10-22T06:10:19.995Z,23.70
2022-10-22T06:12:47.253Z,23.57
2022-10-22T06:15:15.751Z,25.83
2022-10-22T06:17:44.508Z,23.17
2022-10-22T06:20:12.419Z,23.13
2022-10-22T06:22:39.291Z,23.17
2022-10-22T06:25:08.147Z,23.03
2022-10-22T06:27:34.944Z,21.63
2022-10-22T06:30:01.468Z,23.40
2022-10-22T06:32:27.979Z,22.50
2022-10-22T06:34:54.440Z,20.80
2022-10-22T06:37:20.995Z,21.23
2022-10-22T06:39:47.412Z,20.90
2022-10-22T06:42:13.862Z,22.30
2022-10-22T06:44:40.418Z,22.03
2022-10-22T06:47:07.018Z,21.53
2022-10-22T06:49:33.629Z,20.83
2022-10-22T06:52:00.097Z,21.23
2022-10-22T06:54:26.626Z,20.27
2022-10-22T06:56:53.184Z,20.30
2022-10-22T06:59:19.645Z,20.57
2022-10-22T07:01:46.460Z,19.83
2022-10-22T07:04:13.443Z,19.60
2022-10-22T07:06:39.884Z,19.80
2022-10-22T07:09:06.808Z,19.67
2022-10-22T07:11:40.650Z,20.83
2022-10-22T07:14:07.703Z,20.87
2022-10-22T07:16:34.210Z,21.20
2022-10-22T07:19:01.736Z,21.33
2022-10-22T07:21:28.633Z,22.83
2022-10-22T07:23:55.146Z,22.73
2022-10-22T07:26:21.877Z,24.47
2022-10-22T07:28:48.669Z,26.77
2022-10-22T07:31:16.062Z,28.13
2022-10-22T07:33:42.524Z,24.97
2022-10-22T07:36:11.507Z,25.50
2022-10-22T07:38:37.969Z,23.33
2022-10-22T07:41:04.679Z,24.37
2022-10-22T07:43:31.605Z,23.83
2022-10-22T07:45:59.621Z,24.27
2022-10-22T07:48:26.132Z,24.37
2022-10-22T07:50:52.658Z,22.93
2022-10-22T07:53:19.314Z,24.10
2022-10-22T07:55:49.129Z,24.73
2022-10-22T07:58:16.412Z,23.33
2022-10-22T08:00:42.963Z,23.67
2022-10-22T08:03:12.806Z,23.37
2022-10-22T08:05:39.417Z,22.87
2022-10-22T08:08:06.941Z,21.93
2022-10-22T08:10:33.750Z,23.60
2022-10-22T08:13:00.272Z,24.13
2022-10-22T08:15:27.276Z,22.50
2022-10-22T08:17:54.016Z,21.87
2022-10-22T08:20:20.674Z,22.47
2022-10-22T08:22:47.220Z,21.87
2022-10-22T08:25:15.439Z,21.80
2022-10-22T08:27:42.391Z,21.97
2022-10-22T08:30:09.779Z,22.57
2022-10-22T08:32:36.218Z,23.07
2022-10-22T08:35:02.645Z,21.13
2022-10-22T08:37:29.107Z,21.40
2022-10-22T08:39:55.614Z,21.47
2022-10-22T08:42:50.843Z,21.73
2022-10-22T08:45:26.727Z,21.23
2022-10-22T08:48:05.236Z,21.40
2022-10-22T08:50:44.130Z,21.13
2022-10-22T08:53:16.746Z,22.90
2022-10-22T08:55:44.156Z,20.57
2022-10-22T08:58:31.345Z,21.50
2022-10-22T09:01:03.855Z,20.90
2022-10-22T09:03:38.244Z,22.07
2022-10-22T09:06:15.287Z,21.13
2022-10-22T09:08:43.562Z,20.00
2022-10-22T09:11:12.655Z,20.20
2022-10-22T09:13:41.757Z,20.87
2022-10-22T09:16:19.262Z,21.27
2022-10-22T09:18:52.212Z,21.03
2022-10-22T09:21:52.880Z,22.47
2022-10-22T09:24:33.240Z,23.93
2022-10-22T09:27:01.533Z,23.30
2022-10-22T09:29:32.997Z,24.67
2022-10-22T09:31:59.583Z,25.63
2022-10-22T09:34:26.299Z,25.23
2022-10-22T09:37:07.024Z,26.40
2022-10-22T09:39:35.338Z,27.13
2022-10-22T09:42:01.970Z,25.73
2022-10-22T09:44:28.467Z,27.67
2022-10-22T09:46:54.946Z,27.47
2022-10-22T09:49:23.212Z,26.60
2022-10-22T09:51:56.631Z,28.33
2022-10-22T09:54:25.951Z,27.83
2022-10-22T09:57:17.586Z,27.43
2022-10-22T09:59:48.723Z,27.93
2022-10-22T10:02:37.390Z,26.80
2022-10-22T10:05:06.080Z,27.43
2022-10-22T10:07:33.573Z,27.47
2022-10-22T10:10:00.167Z,25.63
2022-10-22T10:12:52.742Z,25.83
2022-10-22T10:15:54.802Z,27.27
2022-10-22T10:18:44.055Z,25.43
2022-10-22T10:21:25.523Z,25.60
2022-10-22T10:24:21.305Z,27.17
2022-10-22T10:27:09.838Z,26.37
2022-10-22T10:29:47.235Z,26.60
2022-10-22T10:32:48.309Z,27.40
2022-10-22T10:35:28.609Z,25.90
2022-10-22T10:38:33.136Z,27.03
2022-10-22T10:41:09.010Z,27.43
2022-10-22T10:43:51.331Z,27.50
2022-10-22T10:46:32.194Z,29.03
2022-10-22T10:49:11.393Z,28.30
2022-10-22T10:51:50.309Z,27.47
2022-10-22T10:54:21.790Z,27.80
2022-10-22T10:56:53.397Z,29.03
2022-10-22T10:59:38.630Z,28.87
2022-10-22T11:02:30.334Z,29.63
2022-10-22T11:05:15.115Z,30.10
2022-10-22T11:08:19.375Z,30.03
2022-10-22T11:10:56.339Z,29.13
2022-10-22T11:13:43.929Z,30.10
2022-10-22T11:16:27.299Z,31.20
2022-10-22T11:19:03.473Z,32.20
2022-10-22T11:21:34.628Z,31.57
2022-10-22T11:24:14.973Z,34.50
2022-10-22T11:26:50.276Z,37.17
2022-10-22T11:29:30.739Z,36.63
2022-10-22T11:31:59.672Z,39.93
2022-10-22T11:34:41.982Z,41.37
2022-10-22T11:37:11.080Z,36.80
2022-10-22T11:39:57.324Z,36.07
2022-10-22T11:42:43.287Z,33.27
2022-10-22T11:45:15.581Z,32.20
2022-10-22T11:48:15.242Z,33.67
2022-10-22T11:50:42.624Z,32.17
2022-10-22T11:53:14.940Z,32.43
2022-10-22T11:55:45.902Z,32.33
2022-10-22T11:58:35.642Z,33.10
2022-10-22T12:01:02.114Z,31.70
2022-10-22T12:03:28.601Z,31.27
2022-10-22T12:06:11.964Z,31.70
2022-10-22T12:08:50.617Z,30.90
2022-10-22T12:11:21.508Z,31.20
2022-10-22T12:14:00.249Z,32.00
2022-10-22T12:16:37.788Z,30.37
2022-10-22T12:19:28.247Z,30.20
2022-10-22T12:21:58.864Z,29.77
2022-10-22T12:24:29.661Z,30.00
2022-10-22T12:26:56.248Z,29.60
2022-10-22T12:29:23.914Z,28.50
2022-10-22T12:31:50.564Z,30.23
2022-10-22T12:34:19.307Z,29.67
2022-10-22T12:36:47.835Z,29.93
2022-10-22T12:39:20.293Z,29.00
2022-10-22T12:41:47.071Z,29.07
2022-10-22T12:44:15.864Z,27.57
2022-10-22T12:46:43.806Z,28.90
2022-10-22T12:49:21.882Z,28.20
2022-10-22T12:51:49.286Z,25.87
2022-10-22T12:54:26.913Z,26.17
2022-10-22T12:56:54.431Z,26.73
2022-10-22T12:59:24.200Z,25.83
2022-10-22T13:01:51.612Z,25.53
2022-10-22T13:04:28.368Z,25.43
2022-10-22T13:07:19.796Z,24.27
2022-10-22T13:09:58.298Z,24.33
2022-10-22T13:12:26.925Z,26.47
2022-10-22T13:14:53.549Z,26.07
2022-10-22T13:17:37.323Z,25.97
2022-10-22T13:20:13.563Z,26.03
2022-10-22T13:22:42.008Z,26.60
2022-10-22T13:25:19.338Z,26.13
2022-10-22T13:27:51.402Z,26.23
2022-10-22T13:30:27.408Z,27.90
2022-10-22T13:32:58.253Z,28.30
2022-10-22T13:35:27.653Z,26.97
2022-10-22T13:37:54.912Z,26.60
2022-10-22T13:40:22.050Z,27.73
2022-10-22T13:42:48.824Z,26.30
2022-10-22T13:45:16.436Z,26.33
2022-10-22T13:47:46.812Z,27.67
2022-10-22T13:50:16.029Z,27.37
2022-10-22T13:52:46.339Z,26.50
2022-10-22T13:55:27.610Z,26.93
2022-10-22T13:57:56.598Z,28.17
2022-10-22T14:00:23.582Z,28.43
2022-10-22T14:02:52.874Z,28.93
2022-10-22T14:05:19.588Z,29.13
2022-10-22T14:07:46.425Z,29.60
2022-10-22T14:10:22.277Z,29.40
2022-10-22T14:12:52.407Z,29.57
2022-10-22T14:15:22.382Z,30.67
2022-10-22T14:17:52.804Z,30.47
2022-10-22T14:20:22.734Z,30.77
2022-10-22T14:22:50.544Z,30.80
2022-10-22T14:25:21.957Z,34.13
2022-10-22T14:27:48.752Z,34.50
2022-10-22T14:30:17.597Z,32.10
2022-10-22T14:32:44.377Z,33.13
2022-10-22T14:35:15.958Z,32.30
2022-10-22T14:37:42.874Z,33.97
2022-10-22T14:40:12.543Z,32.47
2022-10-22T14:42:43.026Z,33.07
2022-10-22T14:45:17.100Z,34.57
2022-10-22T14:47:43.770Z,33.83
2022-10-22T14:50:10.746Z,32.67
2022-10-22T14:52:37.415Z,33.97
2022-10-22T14:55:04.165Z,34.73
2022-10-22T14:57:31.343Z,35.67
2022-10-22T14:59:57.933Z,35.23
2022-10-22T15:02:24.602Z,36.20
2022-10-22T15:04:51.828Z,36.67
2022-10-22T15:07:19.084Z,37.13
2022-10-22T15:09:46.116Z,37.20
2022-10-22T15:12:12.827Z,36.07
2022-10-22T15:14:39.432Z,37.37
2022-10-22T15:17:06.046Z,38.93
2022-10-22T15:19:32.712Z,38.40
2022-10-22T15:21:59.227Z,40.37
2022-10-22T15:24:25.862Z,39.97
2022-10-22T15:26:53.990Z,42.20
2022-10-22T15:29:20.505Z,42.50
2022-10-22T15:31:49.561Z,43.03
2022-10-22T15:34:30.306Z,45.50
2022-10-22T15:36:59.354Z,44.17
2022-10-22T15:39:26.623Z,42.33
2022-10-22T15:41:53.784Z,44.23
2022-10-22T15:44:25.027Z,39.90
2022-10-22T15:46:51.926Z,39.83
2022-10-22T15:49:18.898Z,39.00
2022-10-22T15:51:45.392Z,38.70
2022-10-22T15:54:17.603Z,40.53
2022-10-22T15:56:44.679Z,40.63
2022-10-22T15:59:13.135Z,39.47
2022-10-22T16:01:40.155Z,39.40
2022-10-22T16:04:07.375Z,41.43
2022-10-22T16:06:46.115Z,40.00
2022-10-22T16:09:15.410Z,39.83
2022-10-22T16:11:42.155Z,42.33
2022-10-22T16:14:14.161Z,41.97
2022-10-22T16:16:44.917Z,43.80
2022-10-22T16:19:12.593Z,43.20
2022-10-22T16:21:39.123Z,43.43
2022-10-22T16:24:06.912Z,45.57
2022-10-22T16:26:33.643Z,43.10
2022-10-22T16:29:00.148Z,45.60
2022-10-22T16:31:26.727Z,48.23
2022-10-22T16:33:53.179Z,48.80
2022-10-22T16:36:21.037Z,49.60
2022-10-22T16:38:48.268Z,49.10
2022-10-22T16:41:22.961Z,47.83
2022-10-22T16:43:51.170Z,49.67
2022-10-22T16:46:21.774Z,49.07
2022-10-22T16:48:49.986Z,47.17
2022-10-22T16:51:18.666Z,48.60
2022-10-22T16:53:45.449Z,51.17
2022-10-22T16:56:13.853Z,52.47
2022-10-22T16:58:45.209Z,50.57
2022-10-22T17:01:13.384Z,51.47
2022-10-22T17:03:41.356Z,53.20
2022-10-22T17:06:08.382Z,57.37
2022-10-22T17:08:36.231Z,55.97
2022-10-22T17:11:22.808Z,56.03
2022-10-22T17:13:52.509Z,55.50
2022-10-22T17:16:21.193Z,59.80
2022-10-22T17:18:48.050Z,58.80
2022-10-22T17:21:15.361Z,57.70
2022-10-22T17:23:42.670Z,59.10
2022-10-22T17:26:14.324Z,57.77
2022-10-22T17:28:41.315Z,60.57
2022-10-22T17:31:23.448Z,57.63
2022-10-22T17:33:52.318Z,59.87
2022-10-22T17:36:19.316Z,65.53
2022-10-22T17:38:49.602Z,64.80
2022-10-22T17:41:18.953Z,64.27
2022-10-22T17:46:25.574Z,63.30
2022-10-22T17:48:53.302Z,63.70
2022-10-22T17:51:21.100Z,63.57
2022-10-22T17:53:47.964Z,64.30
2022-10-22T17:56:16.596Z,65.23
2022-10-22T17:58:43.515Z,65.40
2022-10-22T18:01:22.237Z,65.03
2022-10-22T18:03:48.970Z,67.00
2022-10-22T18:06:15.607Z,67.00
2022-10-22T18:08:42.194Z,66.63
2022-10-22T18:11:11.981Z,67.53
2022-10-22T18:13:38.670Z,69.60
2022-10-22T18:16:05.922Z,70.40
2022-10-22T18:18:33.971Z,74.23
2022-10-22T18:21:00.674Z,70.00
2022-10-22T18:23:27.718Z,63.10
2022-10-22T18:25:54.228Z,68.27
2022-10-22T18:28:20.975Z,66.83
2022-10-22T18:30:49.082Z,65.60
2022-10-22T18:33:17.291Z,66.53
2022-10-22T18:35:43.741Z,66.27
2022-10-22T18:38:13.241Z,66.93
2022-10-22T18:40:46.586Z,66.03
2022-10-22T18:43:13.130Z,66.67
2022-10-22T18:45:43.933Z,68.50
2022-10-22T18:48:10.987Z,67.90
2022-10-22T18:50:37.453Z,69.47
2022-10-22T18:53:03.986Z,67.40
2022-10-22T18:55:30.953Z,66.27
2022-10-22T18:57:57.578Z,66.33
2022-10-22T19:00:26.480Z,67.17
2022-10-22T19:02:56.046Z,65.00
2022-10-22T19:05:22.982Z,66.63
2022-10-22T19:07:50.379Z,67.83
2022-10-22T19:10:17.911Z,65.27
2022-10-22T19:12:44.590Z,65.07
2022-10-22T19:15:11.260Z,63.83
2022-10-22T19:17:37.819Z,63.80
2022-10-22T19:20:04.983Z,62.50
2022-10-22T19:22:32.978Z,60.50
2022-10-22T19:25:00.995Z,62.93
2022-10-22T19:27:27.598Z,62.70
2022-10-22T19:29:54.071Z,61.80
2022-10-22T19:32:21.038Z,62.23
2022-10-22T19:34:47.660Z,57.97
2022-10-22T19:37:14.153Z,61.77
2022-10-22T19:39:40.623Z,64.60
2022-10-22T19:42:07.177Z,62.37
2022-10-22T19:44:33.619Z,62.03
2022-10-22T19:47:00.083Z,63.40
2022-10-22T19:49:26.676Z,61.70
2022-10-22T19:51:53.152Z,62.50
2022-10-22T19:54:20.418Z,60.27
2022-10-22T19:56:47.737Z,59.93
2022-10-22T19:59:15.703Z,60.37
2022-10-22T20:01:42.144Z,59.80
2022-10-22T20:04:11.049Z,59.37
2022-10-22T20:06:37.828Z,60.33
2022-10-22T20:09:04.458Z,58.87
2022-10-22T20:11:31.146Z,55.40
2022-10-22T20:13:58.050Z,54.73
2022-10-22T20:16:28.587Z,54.07
2022-10-22T20:18:55.798Z,54.50
2022-10-22T20:21:22.309Z,50.03
2022-10-22T20:23:52.861Z,52.13
2022-10-22T20:26:19.832Z,52.37
2022-10-22T20:28:46.738Z,53.87
2022-10-22T20:31:16.419Z,54.70
2022-10-22T20:33:42.982Z,52.83
2022-10-22T20:36:14.244Z,52.67
2022-10-22T20:38:40.777Z,51.97
2022-10-22T20:41:16.765Z,53.93
2022-10-22T20:43:45.581Z,52.13
2022-10-22T20:46:17.741Z,50.00
2022-10-22T20:48:44.240Z,49.13
2022-10-22T20:51:11.048Z,49.07
2022-10-22T20:53:37.574Z,47.53
2022-10-22T20:56:04.189Z,48.20
2022-10-22T20:58:31.172Z,44.83
2022-10-22T21:00:58.247Z,45.80
2022-10-22T21:03:24.774Z,43.07
2022-10-22T21:05:51.346Z,42.70
2022-10-22T21:08:17.955Z,40.10
2022-10-22T21:10:49.197Z,39.90
2022-10-22T21:13:16.733Z,39.53
2022-10-22T21:15:43.726Z,39.37
2022-10-22T21:18:10.188Z,37.10
2022-10-22T21:20:38.871Z,35.93
2022-10-22T21:23:05.566Z,33.53
2022-10-22T21:25:32.474Z,34.37
2022-10-22T21:27:58.902Z,33.33
2022-10-22T21:30:25.552Z,34.13
2022-10-22T21:32:52.089Z,34.33
2022-10-22T21:35:18.734Z,33.27
2022-10-22T21:37:45.200Z,32.97
2022-10-22T21:40:12.060Z,29.87
2022-10-22T21:42:38.567Z,31.90
2022-10-22T21:45:10.479Z,32.93
2022-10-22T21:47:39.961Z,34.87
2022-10-22T21:50:07.151Z,33.63
2022-10-22T21:52:33.716Z,32.83
2022-10-22T21:55:00.143Z,33.47
2022-10-22T21:57:26.706Z,34.73
2022-10-22T21:59:53.150Z,32.47
2022-10-22T22:04:54.791Z,35.50
2022-10-22T22:07:21.977Z,34.43
2022-10-22T22:09:51.953Z,36.20
2022-10-22T22:12:18.697Z,34.20
2022-10-22T22:14:45.190Z,34.43
2022-10-22T22:17:11.845Z,36.53
2022-10-22T22:19:38.908Z,35.63
2022-10-22T22:22:05.394Z,37.33
2022-10-22T22:24:32.269Z,37.07
2022-10-22T22:26:59.041Z,36.23
2022-10-22T22:29:25.579Z,36.23
2022-10-22T22:31:52.194Z,37.33
2022-10-22T22:34:18.771Z,36.80
2022-10-22T22:36:47.109Z,36.33
2022-10-22T22:39:18.965Z,36.97
2022-10-22T22:41:46.250Z,37.00
2022-10-22T22:44:13.111Z,35.57
2022-10-22T22:46:39.962Z,38.13
2022-10-22T22:49:06.480Z,36.13
2022-10-22T22:51:33.192Z,37.10
2022-10-22T22:54:00.559Z,36.23
2022-10-22T22:56:34.283Z,37.53
2022-10-22T22:59:01.052Z,37.40
2022-10-22T23:01:33.364Z,35.57
2022-10-22T23:04:02.233Z,36.93
2022-10-22T23:06:31.132Z,35.47
2022-10-22T23:08:58.132Z,35.93
2022-10-22T23:11:25.674Z,37.37
2022-10-22T23:13:55.500Z,37.57
2022-10-22T23:16:23.241Z,34.83
2022-10-22T23:18:50.598Z,34.20
2022-10-22T23:21:20.195Z,33.53
2022-10-22T23:23:49.083Z,34.00
2022-10-22T23:26:18.833Z,34.83
2022-10-22T23:28:45.353Z,33.93
2022-10-22T23:31:15.969Z,35.33
2022-10-22T23:33:42.968Z,37.50
2022-10-22T23:36:10.509Z,36.30
2022-10-22T23:38:39.162Z,37.00
2022-10-22T23:41:05.956Z,37.07
2022-10-22T23:43:36.060Z,38.90
2022-10-22T23:46:04.282Z,40.97
2022-10-22T23:48:31.447Z,39.00
2022-10-22T23:50:57.886Z,40.83
2022-10-22T23:53:24.306Z,39.97
2022-10-22T23:55:50.764Z,41.70
2022-10-22T23:58:17.352Z,41.53
